Impacts TAF Board INFO
FOR SITUATIONAL AWARENESS. NOT TO BE USED FOR FLIGHT PLANNING PURPOSES.
IDs:

KIAD - Washington/Dulles In, VA, US

Issued at 0239 UTC 23 May 2018
Updated at 0311 UTC 23 May 2018
Potential Impact None Slight Moderate High
Time0300Z 23/04Z 23/05Z 23/06Z 23/07Z 23/08Z 23/09Z 23/10Z 23/11Z 23/12Z 23/13Z 23/14Z 23/15Z 23/16Z>>
Type OBS PRVL
  [TEMP]  
PRVL
  [TEMP]  
PRVL PRVL PRVL PRVL PRVL PRVL PRVL PRVL PRVL PRVL PRVL
VIS 10 >6 >6 4 4 4 2 2 2 >6 >6 >6 >6 >6
CIG 6 100
  [8]  
100
  [8]  
8 8 8 8 8 8 35 35 35 35 --
Cover BKN BKN
  [BKN]  
BKN
  [BKN]  
BKN BKN BKN BKN BKN BKN BKN BKN BKN BKN SCT
FltCat IFR VFR
  [IFR]  
VFR
  [IFR]  
IFR IFR IFR IFR IFR IFR VFR VFR VFR VFR VFR
WX -RA --
  [--]  
--
  [--]  
BR BR BR BR BR BR -- -- -- -- --
WDir 180 VRB
[VRB]
VRB
[VRB]
VRB VRB VRB VRB VRB VRB 300 300 300 300 330
WSpd 4 3
  [3]  
3
  [3]  
3 3 3 3 3 3 8 8 8 8 10
WGst -- --
  [--]  
--
  [--]  
-- -- -- -- -- -- -- -- -- -- 16

Raw TAF
KIAD 230239Z 2303/2406 VRB03KT P6SM SCT008 BKN100
  TEMPO 2303/2306 BKN008
  FM230600 VRB03KT 4SM BR BKN008 BKN025
  FM230900 VRB03KT 2SM BR BKN008
  FM231200 30008KT P6SM BKN035
  FM231600 33010G16KT P6SM SCT040
  FM240000 VRB03KT P6SM FEW250


Raw METAR
KIAD 230300Z 18004KT 10SM -RA BKN006 BKN120 20/20 A2998 RMK AO2 LTG DSNT S P0000 T02000200
KIAD 230252Z 18008KT 10SM -RA FEW006 SCT120 BKN150 20/20 A2998 RMK AO2 LTG DSNT S RAB41 SLP151 P0000 60000 T02000200 50005
KIAD 230152Z 18006KT 10SM FEW007 OVC100 21/21 A3000 RMK AO2 LTG DSNT E-SW SLP156 T02060206
KIAD 230140Z 17007KT 10SM FEW007 OVC100 21/21 A2999 RMK AO2 LTG DSNT SE-SW T02060206
KIAD 230052Z 17005KT 10SM SCT060 BKN120 BKN200 21/21 A2998 RMK AO2 SLP150 T02060206

METAR Board
Radar Display
Forecast Discussion

FOR SITUATIONAL AWARENESS. NOT TO BE USED FOR FLIGHT PLANNING PURPOSES.